sensor_id;sensor_type;location;lat;lon;timestamp;P1;durP1;ratioP1;P2;durP2;ratioP2
42886;SDS011;29032;56.028;92.904;2023-05-14T00:04:06;13.27;;;8.73;;
42886;SDS011;29032;56.028;92.904;2023-05-14T00:09:10;11.23;;;6.20;;
42886;SDS011;29032;56.028;92.904;2023-05-14T00:14:30;12.37;;;7.13;;
42886;SDS011;29032;56.028;92.904;2023-05-14T00:19:33;15.23;;;8.00;;
42886;SDS011;29032;56.028;92.904;2023-05-14T00:24:36;11.70;;;7.60;;
42886;SDS011;29032;56.028;92.904;2023-05-14T00:29:38;15.27;;;8.50;;
42886;SDS011;29032;56.028;92.904;2023-05-14T00:34:40;18.27;;;10.03;;
42886;SDS011;29032;56.028;92.904;2023-05-14T00:40:02;18.67;;;9.73;;
42886;SDS011;29032;56.028;92.904;2023-05-14T00:45:05;19.67;;;9.80;;
42886;SDS011;29032;56.028;92.904;2023-05-14T00:50:08;15.00;;;9.57;;
42886;SDS011;29032;56.028;92.904;2023-05-14T00:55:12;17.37;;;10.07;;
42886;SDS011;29032;56.028;92.904;2023-05-14T01:00:16;14.33;;;8.30;;
42886;SDS011;29032;56.028;92.904;2023-05-14T01:05:19;14.80;;;7.93;;
42886;SDS011;29032;56.028;92.904;2023-05-14T01:10:41;15.23;;;8.15;;
42886;SDS011;29032;56.028;92.904;2023-05-14T01:15:50;13.87;;;7.57;;
42886;SDS011;29032;56.028;92.904;2023-05-14T01:20:56;13.67;;;7.97;;
42886;SDS011;29032;56.028;92.904;2023-05-14T01:26:00;14.47;;;7.77;;
42886;SDS011;29032;56.028;92.904;2023-05-14T01:36:24;11.77;;;7.30;;
42886;SDS011;29032;56.028;92.904;2023-05-14T01:41:30;9.23;;;5.67;;
42886;SDS011;29032;56.028;92.904;2023-05-14T01:46:33;7.77;;;5.13;;
42886;SDS011;29032;56.028;92.904;2023-05-14T01:51:35;4.60;;;2.97;;
42886;SDS011;29032;56.028;92.904;2023-05-14T01:56:38;3.47;;;2.83;;
42886;SDS011;29032;56.028;92.904;2023-05-14T02:01:41;2.70;;;2.10;;
42886;SDS011;29032;56.028;92.904;2023-05-14T02:07:01;2.33;;;2.13;;
42886;SDS011;29032;56.028;92.904;2023-05-14T02:12:05;1.80;;;1.70;;
42886;SDS011;29032;56.028;92.904;2023-05-14T02:17:08;1.30;;;1.17;;
42886;SDS011;29032;56.028;92.904;2023-05-14T02:22:10;1.50;;;1.40;;
42886;SDS011;29032;56.028;92.904;2023-05-14T02:27:14;2.83;;;1.30;;
42886;SDS011;29032;56.028;92.904;2023-05-14T02:32:16;1.27;;;1.03;;
42886;SDS011;29032;56.028;92.904;2023-05-14T02:42:58;1.88;;;1.58;;
42886;SDS011;29032;56.028;92.904;2023-05-14T02:48:18;1.83;;;1.57;;
42886;SDS011;29032;56.028;92.904;2023-05-14T02:53:20;2.07;;;1.70;;
42886;SDS011;29032;56.028;92.904;2023-05-14T02:58:23;2.90;;;2.10;;
42886;SDS011;29032;56.028;92.904;2023-05-14T03:03:43;1.70;;;1.60;;
42886;SDS011;29032;56.028;92.904;2023-05-14T03:09:04;1.93;;;1.50;;
42886;SDS011;29032;56.028;92.904;2023-05-14T03:14:25;3.07;;;1.60;;
42886;SDS011;29032;56.028;92.904;2023-05-14T03:19:27;2.13;;;1.63;;
42886;SDS011;29032;56.028;92.904;2023-05-14T03:24:29;1.57;;;1.47;;
42886;SDS011;29032;56.028;92.904;2023-05-14T03:29:33;2.70;;;1.50;;
42886;SDS011;29032;56.028;92.904;2023-05-14T03:34:35;2.70;;;1.57;;
42886;SDS011;29032;56.028;92.904;2023-05-14T03:45:19;1.47;;;1.37;;
42886;SDS011;29032;56.028;92.904;2023-05-14T03:50:21;2.03;;;1.60;;
42886;SDS011;29032;56.028;92.904;2023-05-14T03:55:25;3.13;;;1.83;;
42886;SDS011;29032;56.028;92.904;2023-05-14T04:00:28;1.93;;;1.60;;
42886;SDS011;29032;56.028;92.904;2023-05-14T04:05:30;2.30;;;1.53;;
42886;SDS011;29032;56.028;92.904;2023-05-14T04:10:32;4.83;;;2.07;;
42886;SDS011;29032;56.028;92.904;2023-05-14T04:15:36;4.67;;;2.20;;
42886;SDS011;29032;56.028;92.904;2023-05-14T04:20:38;7.57;;;2.87;;
42886;SDS011;29032;56.028;92.904;2023-05-14T04:25:40;5.60;;;2.20;;
42886;SDS011;29032;56.028;92.904;2023-05-14T04:30:44;4.47;;;2.43;;
42886;SDS011;29032;56.028;92.904;2023-05-14T04:35:45;5.73;;;2.57;;
42886;SDS011;29032;56.028;92.904;2023-05-14T04:40:47;7.00;;;2.90;;
42886;SDS011;29032;56.028;92.904;2023-05-14T04:45:51;4.53;;;2.63;;
42886;SDS011;29032;56.028;92.904;2023-05-14T04:50:53;4.57;;;2.43;;
42886;SDS011;29032;56.028;92.904;2023-05-14T05:01:35;4.10;;;2.17;;
42886;SDS011;29032;56.028;92.904;2023-05-14T05:06:37;3.50;;;2.30;;
42886;SDS011;29032;56.028;92.904;2023-05-14T05:17:01;8.07;;;2.47;;
42886;SDS011;29032;56.028;92.904;2023-05-14T05:22:03;3.13;;;2.03;;
42886;SDS011;29032;56.028;92.904;2023-05-14T05:27:05;3.93;;;2.30;;
42886;SDS011;29032;56.028;92.904;2023-05-14T05:37:32;4.33;;;2.47;;
42886;SDS011;29032;56.028;92.904;2023-05-14T05:42:34;4.07;;;2.57;;
42886;SDS011;29032;56.028;92.904;2023-05-14T05:47:38;5.00;;;2.43;;
42886;SDS011;29032;56.028;92.904;2023-05-14T05:52:39;6.77;;;2.50;;
42886;SDS011;29032;56.028;92.904;2023-05-14T05:57:42;6.67;;;2.87;;
42886;SDS011;29032;56.028;92.904;2023-05-14T06:02:45;9.80;;;3.00;;
42886;SDS011;29032;56.028;92.904;2023-05-14T06:07:47;4.57;;;2.17;;
42886;SDS011;29032;56.028;92.904;2023-05-14T06:12:49;5.20;;;2.00;;
42886;SDS011;29032;56.028;92.904;2023-05-14T06:17:53;5.90;;;2.53;;
42886;SDS011;29032;56.028;92.904;2023-05-14T06:28:15;4.13;;;2.40;;
42886;SDS011;29032;56.028;92.904;2023-05-14T06:33:19;5.53;;;3.07;;
42886;SDS011;29032;56.028;92.904;2023-05-14T06:38:21;5.93;;;2.47;;
42886;SDS011;29032;56.028;92.904;2023-05-14T06:43:41;4.47;;;2.93;;
42886;SDS011;29032;56.028;92.904;2023-05-14T06:48:45;6.23;;;2.80;;
42886;SDS011;29032;56.028;92.904;2023-05-14T06:59:07;5.70;;;2.57;;
42886;SDS011;29032;56.028;92.904;2023-05-14T07:04:10;4.83;;;2.50;;
42886;SDS011;29032;56.028;92.904;2023-05-14T07:09:12;2.97;;;2.20;;
42886;SDS011;29032;56.028;92.904;2023-05-14T07:19:36;4.87;;;2.33;;
42886;SDS011;29032;56.028;92.904;2023-05-14T07:24:56;4.77;;;2.30;;
42886;SDS011;29032;56.028;92.904;2023-05-14T07:35:20;2.40;;;1.80;;
42886;SDS011;29032;56.028;92.904;2023-05-14T07:40:22;5.03;;;2.10;;
42886;SDS011;29032;56.028;92.904;2023-05-14T07:45:24;5.10;;;2.17;;
42886;SDS011;29032;56.028;92.904;2023-05-14T07:50:28;2.37;;;2.00;;
42886;SDS011;29032;56.028;92.904;2023-05-14T07:56:07;3.33;;;1.80;;
42886;SDS011;29032;56.028;92.904;2023-05-14T08:01:09;2.53;;;1.93;;
42886;SDS011;29032;56.028;92.904;2023-05-14T08:11:33;3.67;;;2.00;;
42886;SDS011;29032;56.028;92.904;2023-05-14T08:16:54;3.17;;;2.17;;
42886;SDS011;29032;56.028;92.904;2023-05-14T08:27:17;2.80;;;2.13;;
42886;SDS011;29032;56.028;92.904;2023-05-14T08:32:19;3.17;;;2.10;;
42886;SDS011;29032;56.028;92.904;2023-05-14T08:37:23;6.90;;;2.00;;
42886;SDS011;29032;56.028;92.904;2023-05-14T08:42:25;5.80;;;2.00;;
42886;SDS011;29032;56.028;92.904;2023-05-14T08:47:29;2.97;;;2.20;;
42886;SDS011;29032;56.028;92.904;2023-05-14T08:52:33;5.80;;;2.80;;
42886;SDS011;29032;56.028;92.904;2023-05-14T08:57:54;4.27;;;2.10;;
42886;SDS011;29032;56.028;92.904;2023-05-14T09:02:56;3.67;;;1.80;;
42886;SDS011;29032;56.028;92.904;2023-05-14T09:08:36;4.53;;;1.97;;
42886;SDS011;29032;56.028;92.904;2023-05-14T09:13:38;2.77;;;1.90;;
42886;SDS011;29032;56.028;92.904;2023-05-14T09:18:42;3.17;;;2.00;;
42886;SDS011;29032;56.028;92.904;2023-05-14T09:29:07;2.30;;;1.87;;
42886;SDS011;29032;56.028;92.904;2023-05-14T09:34:09;3.57;;;1.80;;
42886;SDS011;29032;56.028;92.904;2023-05-14T09:39:31;3.43;;;1.87;;
42886;SDS011;29032;56.028;92.904;2023-05-14T09:44:34;4.97;;;1.90;;
42886;SDS011;29032;56.028;92.904;2023-05-14T09:49:36;3.43;;;1.73;;
42886;SDS011;29032;56.028;92.904;2023-05-14T09:54:41;4.17;;;1.83;;
42886;SDS011;29032;56.028;92.904;2023-05-14T09:59:43;3.83;;;1.63;;
42886;SDS011;29032;56.028;92.904;2023-05-14T10:04:45;2.67;;;1.80;;
42886;SDS011;29032;56.028;92.904;2023-05-14T10:09:50;4.87;;;1.97;;
42886;SDS011;29032;56.028;92.904;2023-05-14T10:25:45;3.60;;;2.07;;
42886;SDS011;29032;56.028;92.904;2023-05-14T10:30:48;2.00;;;1.57;;
42886;SDS011;29032;56.028;92.904;2023-05-14T10:35:54;6.15;;;2.17;;
42886;SDS011;29032;56.028;92.904;2023-05-14T10:41:00;4.35;;;1.77;;
42886;SDS011;29032;56.028;92.904;2023-05-14T10:46:03;3.40;;;1.83;;
42886;SDS011;29032;56.028;92.904;2023-05-14T10:51:06;3.08;;;1.80;;
42886;SDS011;29032;56.028;92.904;2023-05-14T10:56:12;4.47;;;1.80;;
42886;SDS011;29032;56.028;92.904;2023-05-14T11:01:14;2.67;;;1.80;;
42886;SDS011;29032;56.028;92.904;2023-05-14T11:06:16;4.72;;;1.80;;
42886;SDS011;29032;56.028;92.904;2023-05-14T11:11:20;2.85;;;1.60;;
42886;SDS011;29032;56.028;92.904;2023-05-14T11:16:22;2.58;;;1.60;;
42886;SDS011;29032;56.028;92.904;2023-05-14T11:21:24;5.97;;;2.05;;
42886;SDS011;29032;56.028;92.904;2023-05-14T11:26:45;4.15;;;1.73;;
42886;SDS011;29032;56.028;92.904;2023-05-14T11:37:08;6.28;;;2.00;;
42886;SDS011;29032;56.028;92.904;2023-05-14T11:47:32;5.77;;;2.00;;
42886;SDS011;29032;56.028;92.904;2023-05-14T11:52:36;7.70;;;2.67;;
42886;SDS011;29032;56.028;92.904;2023-05-14T11:57:40;4.17;;;1.93;;
42886;SDS011;29032;56.028;92.904;2023-05-14T12:02:42;3.97;;;2.30;;
42886;SDS011;29032;56.028;92.904;2023-05-14T12:07:44;3.30;;;1.83;;
42886;SDS011;29032;56.028;92.904;2023-05-14T12:12:48;5.40;;;2.43;;
42886;SDS011;29032;56.028;92.904;2023-05-14T12:17:50;3.50;;;1.70;;
42886;SDS011;29032;56.028;92.904;2023-05-14T12:23:10;3.30;;;2.30;;
42886;SDS011;29032;56.028;92.904;2023-05-14T12:28:15;7.33;;;2.50;;
42886;SDS011;29032;56.028;92.904;2023-05-14T12:33:17;9.17;;;2.50;;
42886;SDS011;29032;56.028;92.904;2023-05-14T12:38:19;5.50;;;3.10;;
42886;SDS011;29032;56.028;92.904;2023-05-14T12:43:22;6.63;;;2.40;;
42886;SDS011;29032;56.028;92.904;2023-05-14T12:48:24;9.53;;;3.03;;
42886;SDS011;29032;56.028;92.904;2023-05-14T12:53:26;7.57;;;3.50;;
42886;SDS011;29032;56.028;92.904;2023-05-14T12:58:30;11.93;;;2.90;;
42886;SDS011;29032;56.028;92.904;2023-05-14T13:03:32;8.00;;;3.00;;
42886;SDS011;29032;56.028;92.904;2023-05-14T13:14:14;4.87;;;2.80;;
42886;SDS011;29032;56.028;92.904;2023-05-14T13:19:16;9.13;;;2.87;;
42886;SDS011;29032;56.028;92.904;2023-05-14T13:29:40;5.07;;;2.80;;
42886;SDS011;29032;56.028;92.904;2023-05-14T13:34:42;9.03;;;3.07;;
42886;SDS011;29032;56.028;92.904;2023-05-14T13:40:02;6.97;;;3.50;;
42886;SDS011;29032;56.028;92.904;2023-05-14T13:45:07;6.37;;;4.03;;
42886;SDS011;29032;56.028;92.904;2023-05-14T13:50:10;8.80;;;3.80;;
42886;SDS011;29032;56.028;92.904;2023-05-14T14:00:33;8.07;;;3.93;;
42886;SDS011;29032;56.028;92.904;2023-05-14T14:05:35;11.10;;;4.17;;
42886;SDS011;29032;56.028;92.904;2023-05-14T14:10:37;10.30;;;4.87;;
42886;SDS011;29032;56.028;92.904;2023-05-14T14:21:01;20.30;;;6.03;;
42886;SDS011;29032;56.028;92.904;2023-05-14T14:26:03;14.97;;;6.53;;
42886;SDS011;29032;56.028;92.904;2023-05-14T14:31:07;14.17;;;6.53;;
42886;SDS011;29032;56.028;92.904;2023-05-14T14:41:47;16.33;;;7.63;;
42886;SDS011;29032;56.028;92.904;2023-05-14T14:47:09;17.63;;;9.00;;
42886;SDS011;29032;56.028;92.904;2023-05-14T14:57:31;16.10;;;8.50;;
42886;SDS011;29032;56.028;92.904;2023-05-14T15:08:13;15.43;;;7.67;;
42886;SDS011;29032;56.028;92.904;2023-05-14T15:13:16;13.20;;;7.63;;
42886;SDS011;29032;56.028;92.904;2023-05-14T15:18:19;14.20;;;8.13;;
42886;SDS011;29032;56.028;92.904;2023-05-14T15:23:21;13.27;;;7.43;;
42886;SDS011;29032;56.028;92.904;2023-05-14T15:28:23;15.80;;;7.87;;
42886;SDS011;29032;56.028;92.904;2023-05-14T15:33:27;20.83;;;8.03;;
42886;SDS011;29032;56.028;92.904;2023-05-14T15:38:29;12.20;;;6.80;;
42886;SDS011;29032;56.028;92.904;2023-05-14T15:43:49;18.53;;;7.77;;
42886;SDS011;29032;56.028;92.904;2023-05-14T15:48:52;13.80;;;8.07;;
42886;SDS011;29032;56.028;92.904;2023-05-14T15:53:54;17.80;;;8.27;;
42886;SDS011;29032;56.028;92.904;2023-05-14T15:58:57;16.00;;;7.90;;
42886;SDS011;29032;56.028;92.904;2023-05-14T16:04:00;13.67;;;7.90;;
42886;SDS011;29032;56.028;92.904;2023-05-14T16:09:02;17.03;;;8.60;;
42886;SDS011;29032;56.028;92.904;2023-05-14T16:14:04;15.83;;;9.20;;
42886;SDS011;29032;56.028;92.904;2023-05-14T16:19:08;19.87;;;8.73;;
42886;SDS011;29032;56.028;92.904;2023-05-14T16:24:10;19.93;;;9.33;;
42886;SDS011;29032;56.028;92.904;2023-05-14T16:29:12;15.03;;;8.60;;
42886;SDS011;29032;56.028;92.904;2023-05-14T16:34:15;16.37;;;9.93;;
42886;SDS011;29032;56.028;92.904;2023-05-14T16:39:17;16.43;;;8.60;;
42886;SDS011;29032;56.028;92.904;2023-05-14T16:44:19;15.60;;;8.43;;
42886;SDS011;29032;56.028;92.904;2023-05-14T16:54:43;17.70;;;8.50;;
42886;SDS011;29032;56.028;92.904;2023-05-14T16:59:45;17.23;;;8.17;;
42886;SDS011;29032;56.028;92.904;2023-05-14T17:04:48;17.93;;;9.30;;
42886;SDS011;29032;56.028;92.904;2023-05-14T17:09:56;18.70;;;9.20;;
42886;SDS011;29032;56.028;92.904;2023-05-14T17:14:58;22.40;;;9.33;;
42886;SDS011;29032;56.028;92.904;2023-05-14T17:20:02;17.07;;;9.63;;
42886;SDS011;29032;56.028;92.904;2023-05-14T17:25:05;21.47;;;9.93;;
42886;SDS011;29032;56.028;92.904;2023-05-14T17:30:08;18.83;;;10.50;;
42886;SDS011;29032;56.028;92.904;2023-05-14T17:35:30;23.43;;;13.73;;
42886;SDS011;29032;56.028;92.904;2023-05-14T17:40:32;29.40;;;13.53;;
42886;SDS011;29032;56.028;92.904;2023-05-14T17:45:34;30.23;;;15.47;;
42886;SDS011;29032;56.028;92.904;2023-05-14T17:50:38;26.20;;;15.20;;
42886;SDS011;29032;56.028;92.904;2023-05-14T17:55:40;29.27;;;13.50;;
42886;SDS011;29032;56.028;92.904;2023-05-14T18:00:42;26.27;;;12.17;;
42886;SDS011;29032;56.028;92.904;2023-05-14T18:06:04;26.50;;;11.73;;
42886;SDS011;29032;56.028;92.904;2023-05-14T18:11:06;23.03;;;10.93;;
42886;SDS011;29032;56.028;92.904;2023-05-14T18:16:09;21.10;;;11.13;;
42886;SDS011;29032;56.028;92.904;2023-05-14T18:26:32;30.27;;;14.77;;
42886;SDS011;29032;56.028;92.904;2023-05-14T18:31:34;24.70;;;15.30;;
42886;SDS011;29032;56.028;92.904;2023-05-14T18:36:38;31.57;;;16.43;;
42886;SDS011;29032;56.028;92.904;2023-05-14T18:41:40;31.70;;;17.73;;
42886;SDS011;29032;56.028;92.904;2023-05-14T18:47:00;29.63;;;17.30;;
42886;SDS011;29032;56.028;92.904;2023-05-14T18:57:42;32.20;;;17.67;;
42886;SDS011;29032;56.028;92.904;2023-05-14T19:02:44;36.73;;;19.40;;
42886;SDS011;29032;56.028;92.904;2023-05-14T19:13:08;35.23;;;19.57;;
42886;SDS011;29032;56.028;92.904;2023-05-14T19:18:10;38.77;;;19.30;;
42886;SDS011;29032;56.028;92.904;2023-05-14T19:23:13;36.33;;;19.30;;
42886;SDS011;29032;56.028;92.904;2023-05-14T19:28:15;31.93;;;17.73;;
42886;SDS011;29032;56.028;92.904;2023-05-14T19:33:17;28.33;;;17.90;;
42886;SDS011;29032;56.028;92.904;2023-05-14T19:38:39;37.57;;;19.63;;
42886;SDS011;29032;56.028;92.904;2023-05-14T19:43:59;37.60;;;20.07;;
42886;SDS011;29032;56.028;92.904;2023-05-14T19:49:20;34.70;;;19.43;;
42886;SDS011;29032;56.028;92.904;2023-05-14T20:05:22;32.47;;;19.13;;
42886;SDS011;29032;56.028;92.904;2023-05-14T20:10:42;33.00;;;17.67;;
42886;SDS011;29032;56.028;92.904;2023-05-14T20:15:45;30.17;;;18.00;;
42886;SDS011;29032;56.028;92.904;2023-05-14T20:20:47;33.17;;;17.73;;
42886;SDS011;29032;56.028;92.904;2023-05-14T20:25:50;29.10;;;16.40;;
42886;SDS011;29032;56.028;92.904;2023-05-14T20:30:53;28.43;;;16.67;;
42886;SDS011;29032;56.028;92.904;2023-05-14T20:35:55;31.80;;;17.23;;
42886;SDS011;29032;56.028;92.904;2023-05-14T20:46:37;29.00;;;14.80;;
42886;SDS011;29032;56.028;92.904;2023-05-14T20:51:39;27.00;;;14.23;;
42886;SDS011;29032;56.028;92.904;2023-05-14T20:56:41;24.70;;;14.33;;
42886;SDS011;29032;56.028;92.904;2023-05-14T21:01:45;24.63;;;13.07;;
42886;SDS011;29032;56.028;92.904;2023-05-14T21:06:47;21.07;;;12.37;;
42886;SDS011;29032;56.028;92.904;2023-05-14T21:11:49;20.93;;;12.87;;
42886;SDS011;29032;56.028;92.904;2023-05-14T21:16:52;22.17;;;10.93;;
42886;SDS011;29032;56.028;92.904;2023-05-14T21:21:55;17.93;;;9.80;;
42886;SDS011;29032;56.028;92.904;2023-05-14T21:26:56;18.63;;;10.37;;
42886;SDS011;29032;56.028;92.904;2023-05-14T21:32:18;19.23;;;9.03;;
42886;SDS011;29032;56.028;92.904;2023-05-14T21:37:20;19.00;;;11.03;;
42886;SDS011;29032;56.028;92.904;2023-05-14T21:42:22;17.93;;;11.77;;
42886;SDS011;29032;56.028;92.904;2023-05-14T21:47:26;26.87;;;13.37;;
42886;SDS011;29032;56.028;92.904;2023-05-14T21:52:28;24.57;;;13.80;;
42886;SDS011;29032;56.028;92.904;2023-05-14T22:03:11;27.03;;;15.07;;
42886;SDS011;29032;56.028;92.904;2023-05-14T22:13:33;32.30;;;16.60;;
42886;SDS011;29032;56.028;92.904;2023-05-14T22:23:57;33.10;;;16.23;;
42886;SDS011;29032;56.028;92.904;2023-05-14T22:28:59;26.20;;;14.87;;
42886;SDS011;29032;56.028;92.904;2023-05-14T22:34:02;28.03;;;15.23;;
42886;SDS011;29032;56.028;92.904;2023-05-14T22:39:04;32.23;;;15.00;;
42886;SDS011;29032;56.028;92.904;2023-05-14T22:44:07;29.03;;;15.27;;
42886;SDS011;29032;56.028;92.904;2023-05-14T22:49:28;29.87;;;16.67;;
42886;SDS011;29032;56.028;92.904;2023-05-14T22:54:49;29.83;;;16.17;;
42886;SDS011;29032;56.028;92.904;2023-05-14T22:59:51;29.57;;;15.53;;
42886;SDS011;29032;56.028;92.904;2023-05-14T23:04:54;28.10;;;13.97;;
42886;SDS011;29032;56.028;92.904;2023-05-14T23:15:17;27.63;;;13.47;;
42886;SDS011;29032;56.028;92.904;2023-05-14T23:20:38;28.70;;;13.70;;
42886;SDS011;29032;56.028;92.904;2023-05-14T23:25:40;27.00;;;12.73;;
42886;SDS011;29032;56.028;92.904;2023-05-14T23:36:04;28.30;;;13.13;;
42886;SDS011;29032;56.028;92.904;2023-05-14T23:41:07;23.17;;;12.00;;
42886;SDS011;29032;56.028;92.904;2023-05-14T23:46:09;20.10;;;10.13;;
42886;SDS011;29032;56.028;92.904;2023-05-14T23:51:13;19.53;;;10.50;;
